sensor_id;sensor_type;location;lat;lon;timestamp;P1;durP1;ratioP1;P2;durP2;ratioP2
38717;SDS011;24468;52.128;9.278;2023-12-14T00:01:57;1.50;;;1.40;;
38717;SDS011;24468;52.128;9.278;2023-12-14T00:04:22;2.50;;;1.50;;
38717;SDS011;24468;52.128;9.278;2023-12-14T00:06:48;2.20;;;2.00;;
38717;SDS011;24468;52.128;9.278;2023-12-14T00:09:13;2.30;;;2.10;;
38717;SDS011;24468;52.128;9.278;2023-12-14T00:11:39;1.92;;;1.77;;
38717;SDS011;24468;52.128;9.278;2023-12-14T00:14:05;2.78;;;2.47;;
38717;SDS011;24468;52.128;9.278;2023-12-14T00:16:31;2.50;;;2.20;;
38717;SDS011;24468;52.128;9.278;2023-12-14T00:18:56;1.88;;;1.73;;
38717;SDS011;24468;52.128;9.278;2023-12-14T00:21:22;3.05;;;2.47;;
38717;SDS011;24468;52.128;9.278;2023-12-14T00:23:47;2.13;;;1.92;;
38717;SDS011;24468;52.128;9.278;2023-12-14T00:26:13;1.83;;;1.73;;
38717;SDS011;24468;52.128;9.278;2023-12-14T00:28:39;2.10;;;1.90;;
38717;SDS011;24468;52.128;9.278;2023-12-14T00:31:04;2.22;;;1.88;;
38717;SDS011;24468;52.128;9.278;2023-12-14T00:33:30;2.20;;;2.00;;
38717;SDS011;24468;52.128;9.278;2023-12-14T00:35:55;2.45;;;1.90;;
38717;SDS011;24468;52.128;9.278;2023-12-14T00:38:21;2.80;;;2.05;;
38717;SDS011;24468;52.128;9.278;2023-12-14T00:40:46;2.38;;;2.00;;
38717;SDS011;24468;52.128;9.278;2023-12-14T00:43:12;2.78;;;1.95;;
38717;SDS011;24468;52.128;9.278;2023-12-14T00:45:38;2.42;;;1.92;;
38717;SDS011;24468;52.128;9.278;2023-12-14T00:48:03;2.53;;;2.28;;
38717;SDS011;24468;52.128;9.278;2023-12-14T00:50:29;3.05;;;2.40;;
38717;SDS011;24468;52.128;9.278;2023-12-14T00:52:55;2.53;;;2.17;;
38717;SDS011;24468;52.128;9.278;2023-12-14T00:55:20;3.38;;;1.83;;
38717;SDS011;24468;52.128;9.278;2023-12-14T00:57:46;2.65;;;2.20;;
38717;SDS011;24468;52.128;9.278;2023-12-14T01:00:11;4.95;;;2.60;;
38717;SDS011;24468;52.128;9.278;2023-12-14T01:02:37;2.40;;;2.20;;
38717;SDS011;24468;52.128;9.278;2023-12-14T01:05:03;3.33;;;2.55;;
38717;SDS011;24468;52.128;9.278;2023-12-14T01:07:29;3.42;;;3.00;;
38717;SDS011;24468;52.128;9.278;2023-12-14T01:09:55;3.83;;;2.17;;
38717;SDS011;24468;52.128;9.278;2023-12-14T01:12:20;3.08;;;2.47;;
38717;SDS011;24468;52.128;9.278;2023-12-14T01:14:46;3.08;;;2.78;;
38717;SDS011;24468;52.128;9.278;2023-12-14T01:17:11;2.85;;;2.25;;
38717;SDS011;24468;52.128;9.278;2023-12-14T01:19:39;1.85;;;1.67;;
38717;SDS011;24468;52.128;9.278;2023-12-14T01:22:06;2.85;;;1.90;;
38717;SDS011;24468;52.128;9.278;2023-12-14T01:24:31;2.53;;;2.33;;
38717;SDS011;24468;52.128;9.278;2023-12-14T01:26:57;2.17;;;1.98;;
38717;SDS011;24468;52.128;9.278;2023-12-14T01:29:22;2.67;;;2.22;;
38717;SDS011;24468;52.128;9.278;2023-12-14T01:31:48;2.45;;;2.25;;
38717;SDS011;24468;52.128;9.278;2023-12-14T01:34:13;2.17;;;2.00;;
38717;SDS011;24468;52.128;9.278;2023-12-14T01:36:40;2.33;;;1.98;;
38717;SDS011;24468;52.128;9.278;2023-12-14T01:39:06;5.55;;;2.70;;
38717;SDS011;24468;52.128;9.278;2023-12-14T01:41:32;5.25;;;3.05;;
38717;SDS011;24468;52.128;9.278;2023-12-14T01:43:57;4.57;;;2.53;;
38717;SDS011;24468;52.128;9.278;2023-12-14T01:46:23;5.97;;;2.42;;
38717;SDS011;24468;52.128;9.278;2023-12-14T01:48:49;2.38;;;2.10;;
38717;SDS011;24468;52.128;9.278;2023-12-14T01:51:14;2.17;;;1.90;;
38717;SDS011;24468;52.128;9.278;2023-12-14T01:53:40;4.32;;;2.17;;
38717;SDS011;24468;52.128;9.278;2023-12-14T01:56:06;4.75;;;2.22;;
38717;SDS011;24468;52.128;9.278;2023-12-14T01:58:32;5.35;;;2.83;;
38717;SDS011;24468;52.128;9.278;2023-12-14T02:03:33;4.30;;;2.72;;
38717;SDS011;24468;52.128;9.278;2023-12-14T02:05:58;4.28;;;2.60;;
38717;SDS011;24468;52.128;9.278;2023-12-14T02:08:24;2.70;;;2.00;;
38717;SDS011;24468;52.128;9.278;2023-12-14T02:10:50;2.95;;;2.65;;
38717;SDS011;24468;52.128;9.278;2023-12-14T02:13:15;2.95;;;2.42;;
38717;SDS011;24468;52.128;9.278;2023-12-14T02:15:41;2.88;;;2.13;;
38717;SDS011;24468;52.128;9.278;2023-12-14T02:18:07;3.72;;;2.72;;
38717;SDS011;24468;52.128;9.278;2023-12-14T02:20:33;4.07;;;2.63;;
38717;SDS011;24468;52.128;9.278;2023-12-14T02:22:58;8.68;;;3.17;;
38717;SDS011;24468;52.128;9.278;2023-12-14T02:25:24;3.78;;;2.70;;
38717;SDS011;24468;52.128;9.278;2023-12-14T02:27:50;4.90;;;2.88;;
38717;SDS011;24468;52.128;9.278;2023-12-14T02:30:17;2.97;;;2.50;;
38717;SDS011;24468;52.128;9.278;2023-12-14T02:32:43;3.70;;;3.03;;
38717;SDS011;24468;52.128;9.278;2023-12-14T02:35:09;2.50;;;2.30;;
38717;SDS011;24468;52.128;9.278;2023-12-14T02:37:35;2.28;;;2.08;;
38717;SDS011;24468;52.128;9.278;2023-12-14T02:40:05;3.25;;;2.38;;
38717;SDS011;24468;52.128;9.278;2023-12-14T02:42:32;2.72;;;2.50;;
38717;SDS011;24468;52.128;9.278;2023-12-14T02:44:58;3.40;;;2.90;;
38717;SDS011;24468;52.128;9.278;2023-12-14T02:47:24;2.78;;;2.47;;
38717;SDS011;24468;52.128;9.278;2023-12-14T02:49:49;2.70;;;2.30;;
38717;SDS011;24468;52.128;9.278;2023-12-14T02:52:15;3.88;;;2.47;;
38717;SDS011;24468;52.128;9.278;2023-12-14T02:54:40;2.42;;;2.22;;
38717;SDS011;24468;52.128;9.278;2023-12-14T02:57:06;2.50;;;2.28;;
38717;SDS011;24468;52.128;9.278;2023-12-14T02:59:32;2.30;;;1.80;;
38717;SDS011;24468;52.128;9.278;2023-12-14T03:01:57;2.90;;;2.53;;
38717;SDS011;24468;52.128;9.278;2023-12-14T03:04:23;2.60;;;2.40;;
38717;SDS011;24468;52.128;9.278;2023-12-14T03:06:48;2.08;;;1.85;;
38717;SDS011;24468;52.128;9.278;2023-12-14T03:09:14;2.85;;;2.00;;
38717;SDS011;24468;52.128;9.278;2023-12-14T03:11:39;2.75;;;2.17;;
38717;SDS011;24468;52.128;9.278;2023-12-14T03:14:05;2.97;;;2.17;;
38717;SDS011;24468;52.128;9.278;2023-12-14T03:16:30;2.05;;;1.90;;
38717;SDS011;24468;52.128;9.278;2023-12-14T03:18:56;3.40;;;2.00;;
38717;SDS011;24468;52.128;9.278;2023-12-14T03:21:22;4.15;;;2.22;;
38717;SDS011;24468;52.128;9.278;2023-12-14T03:23:49;2.38;;;2.03;;
38717;SDS011;24468;52.128;9.278;2023-12-14T03:26:15;2.20;;;1.60;;
38717;SDS011;24468;52.128;9.278;2023-12-14T03:28:41;2.00;;;1.77;;
38717;SDS011;24468;52.128;9.278;2023-12-14T03:31:06;1.65;;;1.42;;
38717;SDS011;24468;52.128;9.278;2023-12-14T03:33:32;1.48;;;1.38;;
38717;SDS011;24468;52.128;9.278;2023-12-14T03:35:57;1.67;;;1.48;;
38717;SDS011;24468;52.128;9.278;2023-12-14T03:38:23;1.80;;;1.65;;
38717;SDS011;24468;52.128;9.278;2023-12-14T03:40:49;1.70;;;1.60;;
38717;SDS011;24468;52.128;9.278;2023-12-14T03:43:14;2.03;;;1.77;;
38717;SDS011;24468;52.128;9.278;2023-12-14T03:45:40;2.50;;;2.30;;
38717;SDS011;24468;52.128;9.278;2023-12-14T03:48:05;2.05;;;1.70;;
38717;SDS011;24468;52.128;9.278;2023-12-14T03:50:31;2.38;;;1.92;;
38717;SDS011;24468;52.128;9.278;2023-12-14T03:52:57;2.50;;;2.28;;
38717;SDS011;24468;52.128;9.278;2023-12-14T03:55:23;2.17;;;1.67;;
38717;SDS011;24468;52.128;9.278;2023-12-14T03:57:49;3.05;;;2.08;;
38717;SDS011;24468;52.128;9.278;2023-12-14T04:00:15;2.90;;;2.60;;
38717;SDS011;24468;52.128;9.278;2023-12-14T04:02:41;2.17;;;1.90;;
38717;SDS011;24468;52.128;9.278;2023-12-14T04:05:07;3.83;;;2.70;;
38717;SDS011;24468;52.128;9.278;2023-12-14T04:07:36;1.95;;;1.77;;
38717;SDS011;24468;52.128;9.278;2023-12-14T04:10:05;2.80;;;2.38;;
38717;SDS011;24468;52.128;9.278;2023-12-14T04:12:35;3.20;;;2.90;;
38717;SDS011;24468;52.128;9.278;2023-12-14T04:15:02;3.17;;;2.85;;
38717;SDS011;24468;52.128;9.278;2023-12-14T04:17:30;3.40;;;3.10;;
38717;SDS011;24468;52.128;9.278;2023-12-14T04:19:56;4.13;;;3.70;;
38717;SDS011;24468;52.128;9.278;2023-12-14T04:22:22;3.90;;;3.33;;
38717;SDS011;24468;52.128;9.278;2023-12-14T04:24:47;4.47;;;4.07;;
38717;SDS011;24468;52.128;9.278;2023-12-14T04:27:14;4.10;;;3.70;;
38717;SDS011;24468;52.128;9.278;2023-12-14T04:29:40;4.32;;;3.92;;
38717;SDS011;24468;52.128;9.278;2023-12-14T04:32:06;4.45;;;3.78;;
38717;SDS011;24468;52.128;9.278;2023-12-14T04:34:31;4.43;;;3.88;;
38717;SDS011;24468;52.128;9.278;2023-12-14T04:36:57;4.03;;;3.65;;
38717;SDS011;24468;52.128;9.278;2023-12-14T04:39:25;5.15;;;4.65;;
38717;SDS011;24468;52.128;9.278;2023-12-14T04:41:52;6.15;;;4.65;;
38717;SDS011;24468;52.128;9.278;2023-12-14T04:44:18;5.28;;;4.68;;
38717;SDS011;24468;52.128;9.278;2023-12-14T04:46:44;4.97;;;4.47;;
38717;SDS011;24468;52.128;9.278;2023-12-14T04:49:10;5.32;;;4.45;;
38717;SDS011;24468;52.128;9.278;2023-12-14T04:51:35;4.68;;;4.25;;
38717;SDS011;24468;52.128;9.278;2023-12-14T04:54:01;6.75;;;4.70;;
38717;SDS011;24468;52.128;9.278;2023-12-14T04:56:27;20.13;;;13.85;;
38717;SDS011;24468;52.128;9.278;2023-12-14T04:58:53;7.50;;;6.80;;
38717;SDS011;24468;52.128;9.278;2023-12-14T05:01:18;5.00;;;4.50;;
38717;SDS011;24468;52.128;9.278;2023-12-14T05:03:44;9.48;;;8.52;;
38717;SDS011;24468;52.128;9.278;2023-12-14T05:06:09;7.32;;;4.50;;
38717;SDS011;24468;52.128;9.278;2023-12-14T05:08:35;4.70;;;4.30;;
38717;SDS011;24468;52.128;9.278;2023-12-14T05:11:00;5.85;;;4.47;;
38717;SDS011;24468;52.128;9.278;2023-12-14T05:13:26;8.13;;;6.20;;
38717;SDS011;24468;52.128;9.278;2023-12-14T05:15:51;6.50;;;5.38;;
38717;SDS011;24468;52.128;9.278;2023-12-14T05:18:17;4.10;;;3.70;;
38717;SDS011;24468;52.128;9.278;2023-12-14T05:20:43;6.43;;;4.97;;
38717;SDS011;24468;52.128;9.278;2023-12-14T05:23:10;5.65;;;5.05;;
38717;SDS011;24468;52.128;9.278;2023-12-14T05:25:36;4.95;;;3.90;;
38717;SDS011;24468;52.128;9.278;2023-12-14T05:28:02;4.57;;;3.90;;
38717;SDS011;24468;52.128;9.278;2023-12-14T05:30:28;5.18;;;4.18;;
38717;SDS011;24468;52.128;9.278;2023-12-14T05:32:54;5.78;;;4.63;;
38717;SDS011;24468;52.128;9.278;2023-12-14T05:35:20;4.80;;;4.18;;
38717;SDS011;24468;52.128;9.278;2023-12-14T05:37:45;4.50;;;3.90;;
38717;SDS011;24468;52.128;9.278;2023-12-14T05:40:11;5.20;;;4.45;;
38717;SDS011;24468;52.128;9.278;2023-12-14T05:42:37;4.45;;;4.00;;
38717;SDS011;24468;52.128;9.278;2023-12-14T05:45:03;5.47;;;4.93;;
38717;SDS011;24468;52.128;9.278;2023-12-14T05:47:30;4.63;;;4.22;;
38717;SDS011;24468;52.128;9.278;2023-12-14T05:49:57;6.15;;;4.43;;
38717;SDS011;24468;52.128;9.278;2023-12-14T05:52:24;4.65;;;3.65;;
38717;SDS011;24468;52.128;9.278;2023-12-14T05:54:49;4.60;;;4.20;;
38717;SDS011;24468;52.128;9.278;2023-12-14T05:57:15;4.55;;;4.03;;
38717;SDS011;24468;52.128;9.278;2023-12-14T05:59:41;7.97;;;4.93;;
38717;SDS011;24468;52.128;9.278;2023-12-14T06:02:06;6.40;;;4.97;;
38717;SDS011;24468;52.128;9.278;2023-12-14T06:04:32;6.93;;;5.32;;
38717;SDS011;24468;52.128;9.278;2023-12-14T06:06:58;5.55;;;4.47;;
38717;SDS011;24468;52.128;9.278;2023-12-14T06:09:23;6.95;;;5.15;;
38717;SDS011;24468;52.128;9.278;2023-12-14T06:11:54;7.00;;;5.88;;
38717;SDS011;24468;52.128;9.278;2023-12-14T06:14:20;6.60;;;5.90;;
38717;SDS011;24468;52.128;9.278;2023-12-14T06:16:45;7.32;;;5.63;;
38717;SDS011;24468;52.128;9.278;2023-12-14T06:19:11;10.57;;;5.13;;
38717;SDS011;24468;52.128;9.278;2023-12-14T06:21:37;6.05;;;5.25;;
38717;SDS011;24468;52.128;9.278;2023-12-14T06:24:02;7.22;;;4.30;;
38717;SDS011;24468;52.128;9.278;2023-12-14T06:26:28;5.78;;;5.03;;
38717;SDS011;24468;52.128;9.278;2023-12-14T06:28:54;6.15;;;5.28;;
38717;SDS011;24468;52.128;9.278;2023-12-14T06:31:19;7.47;;;5.45;;
38717;SDS011;24468;52.128;9.278;2023-12-14T06:33:47;6.95;;;5.70;;
38717;SDS011;24468;52.128;9.278;2023-12-14T06:36:18;6.45;;;5.63;;
38717;SDS011;24468;52.128;9.278;2023-12-14T06:38:44;6.40;;;5.25;;
38717;SDS011;24468;52.128;9.278;2023-12-14T06:41:20;6.53;;;5.15;;
38717;SDS011;24468;52.128;9.278;2023-12-14T06:43:47;7.55;;;6.07;;
38717;SDS011;24468;52.128;9.278;2023-12-14T06:46:13;8.32;;;5.97;;
38717;SDS011;24468;52.128;9.278;2023-12-14T06:48:39;5.30;;;4.78;;
38717;SDS011;24468;52.128;9.278;2023-12-14T06:51:05;6.75;;;5.75;;
38717;SDS011;24468;52.128;9.278;2023-12-14T06:53:30;6.90;;;6.20;;
38717;SDS011;24468;52.128;9.278;2023-12-14T06:55:56;8.07;;;6.13;;
38717;SDS011;24468;52.128;9.278;2023-12-14T06:58:21;7.35;;;6.07;;
38717;SDS011;24468;52.128;9.278;2023-12-14T07:00:47;7.18;;;5.97;;
38717;SDS011;24468;52.128;9.278;2023-12-14T07:03:12;11.52;;;8.40;;
38717;SDS011;24468;52.128;9.278;2023-12-14T07:05:38;8.55;;;6.80;;
38717;SDS011;24468;52.128;9.278;2023-12-14T07:08:06;7.72;;;6.80;;
38717;SDS011;24468;52.128;9.278;2023-12-14T07:10:32;8.35;;;6.90;;
38717;SDS011;24468;52.128;9.278;2023-12-14T07:12:57;6.20;;;5.60;;
38717;SDS011;24468;52.128;9.278;2023-12-14T07:15:23;6.38;;;5.45;;
38717;SDS011;24468;52.128;9.278;2023-12-14T07:17:49;8.90;;;6.68;;
38717;SDS011;24468;52.128;9.278;2023-12-14T07:20:15;9.82;;;6.28;;
38717;SDS011;24468;52.128;9.278;2023-12-14T07:22:40;7.72;;;5.65;;
38717;SDS011;24468;52.128;9.278;2023-12-14T07:25:06;6.70;;;5.95;;
38717;SDS011;24468;52.128;9.278;2023-12-14T07:27:33;7.85;;;6.45;;
38717;SDS011;24468;52.128;9.278;2023-12-14T07:29:59;8.27;;;6.25;;
38717;SDS011;24468;52.128;9.278;2023-12-14T07:32:25;7.85;;;5.90;;
38717;SDS011;24468;52.128;9.278;2023-12-14T07:34:50;7.97;;;5.40;;
38717;SDS011;24468;52.128;9.278;2023-12-14T07:37:16;7.93;;;6.40;;
38717;SDS011;24468;52.128;9.278;2023-12-14T07:39:41;20.40;;;14.27;;
38717;SDS011;24468;52.128;9.278;2023-12-14T07:42:07;7.45;;;6.70;;
38717;SDS011;24468;52.128;9.278;2023-12-14T07:44:32;6.38;;;5.55;;
38717;SDS011;24468;52.128;9.278;2023-12-14T07:46:59;7.45;;;6.38;;
38717;SDS011;24468;52.128;9.278;2023-12-14T07:49:25;7.38;;;5.40;;
38717;SDS011;24468;52.128;9.278;2023-12-14T07:51:51;19.55;;;12.18;;
38717;SDS011;24468;52.128;9.278;2023-12-14T07:54:16;20.63;;;13.68;;
38717;SDS011;24468;52.128;9.278;2023-12-14T07:56:43;10.95;;;6.22;;
38717;SDS011;24468;52.128;9.278;2023-12-14T07:59:09;10.45;;;7.85;;
38717;SDS011;24468;52.128;9.278;2023-12-14T08:01:35;7.47;;;6.10;;
38717;SDS011;24468;52.128;9.278;2023-12-14T08:04:01;7.88;;;6.63;;
38717;SDS011;24468;52.128;9.278;2023-12-14T08:06:27;8.55;;;7.03;;
38717;SDS011;24468;52.128;9.278;2023-12-14T08:08:52;10.60;;;5.95;;
38717;SDS011;24468;52.128;9.278;2023-12-14T08:11:18;10.73;;;7.20;;
38717;SDS011;24468;52.128;9.278;2023-12-14T08:13:43;9.25;;;6.90;;
38717;SDS011;24468;52.128;9.278;2023-12-14T08:16:09;8.52;;;6.40;;
38717;SDS011;24468;52.128;9.278;2023-12-14T08:18:36;30.05;;;7.35;;
38717;SDS011;24468;52.128;9.278;2023-12-14T08:21:02;6.97;;;5.57;;
38717;SDS011;24468;52.128;9.278;2023-12-14T08:23:28;8.70;;;5.60;;
38717;SDS011;24468;52.128;9.278;2023-12-14T08:25:55;7.85;;;5.22;;
38717;SDS011;24468;52.128;9.278;2023-12-14T08:28:24;7.85;;;5.00;;
38717;SDS011;24468;52.128;9.278;2023-12-14T08:30:50;6.07;;;4.80;;
38717;SDS011;24468;52.128;9.278;2023-12-14T08:33:16;7.15;;;4.70;;
38717;SDS011;24468;52.128;9.278;2023-12-14T08:35:42;7.72;;;5.07;;
38717;SDS011;24468;52.128;9.278;2023-12-14T08:38:08;6.40;;;5.63;;
38717;SDS011;24468;52.128;9.278;2023-12-14T08:40:38;8.40;;;5.78;;
38717;SDS011;24468;52.128;9.278;2023-12-14T08:43:04;6.10;;;5.22;;
38717;SDS011;24468;52.128;9.278;2023-12-14T08:45:30;5.97;;;5.10;;
38717;SDS011;24468;52.128;9.278;2023-12-14T08:47:55;7.13;;;5.15;;
38717;SDS011;24468;52.128;9.278;2023-12-14T08:50:21;6.13;;;4.80;;
38717;SDS011;24468;52.128;9.278;2023-12-14T08:52:47;7.95;;;6.18;;
38717;SDS011;24468;52.128;9.278;2023-12-14T08:55:13;5.75;;;4.72;;
38717;SDS011;24468;52.128;9.278;2023-12-14T08:57:39;6.10;;;3.92;;
38717;SDS011;24468;52.128;9.278;2023-12-14T09:00:05;3.72;;;3.30;;
38717;SDS011;24468;52.128;9.278;2023-12-14T09:02:34;5.93;;;4.18;;
38717;SDS011;24468;52.128;9.278;2023-12-14T09:05:01;10.27;;;5.35;;
38717;SDS011;24468;52.128;9.278;2023-12-14T09:07:27;3.45;;;3.15;;
38717;SDS011;24468;52.128;9.278;2023-12-14T09:09:52;2.67;;;2.45;;
38717;SDS011;24468;52.128;9.278;2023-12-14T09:12:18;3.75;;;2.97;;
38717;SDS011;24468;52.128;9.278;2023-12-14T09:14:44;4.18;;;3.03;;
38717;SDS011;24468;52.128;9.278;2023-12-14T09:17:10;3.80;;;3.40;;
38717;SDS011;24468;52.128;9.278;2023-12-14T09:19:35;4.25;;;3.85;;
38717;SDS011;24468;52.128;9.278;2023-12-14T09:22:01;5.65;;;3.70;;
38717;SDS011;24468;52.128;9.278;2023-12-14T09:24:26;3.83;;;3.38;;
38717;SDS011;24468;52.128;9.278;2023-12-14T09:26:52;3.97;;;3.50;;
38717;SDS011;24468;52.128;9.278;2023-12-14T09:29:20;3.80;;;3.42;;
38717;SDS011;24468;52.128;9.278;2023-12-14T09:31:46;3.92;;;3.55;;
38717;SDS011;24468;52.128;9.278;2023-12-14T09:34:12;3.88;;;3.38;;
38717;SDS011;24468;52.128;9.278;2023-12-14T09:36:38;3.83;;;3.22;;
38717;SDS011;24468;52.128;9.278;2023-12-14T09:39:04;3.97;;;3.28;;
38717;SDS011;24468;52.128;9.278;2023-12-14T09:41:30;3.38;;;3.08;;
38717;SDS011;24468;52.128;9.278;2023-12-14T09:43:56;3.80;;;3.15;;
38717;SDS011;24468;52.128;9.278;2023-12-14T09:46:23;2.60;;;2.40;;
38717;SDS011;24468;52.128;9.278;2023-12-14T09:48:50;4.60;;;3.53;;
38717;SDS011;24468;52.128;9.278;2023-12-14T09:51:17;4.68;;;3.25;;
38717;SDS011;24468;52.128;9.278;2023-12-14T09:53:43;5.22;;;4.70;;
38717;SDS011;24468;52.128;9.278;2023-12-14T09:56:09;4.72;;;4.22;;
38717;SDS011;24468;52.128;9.278;2023-12-14T09:58:34;8.82;;;4.53;;
38717;SDS011;24468;52.128;9.278;2023-12-14T10:01:00;4.70;;;4.10;;
38717;SDS011;24468;52.128;9.278;2023-12-14T10:03:29;3.60;;;3.00;;
38717;SDS011;24468;52.128;9.278;2023-12-14T10:05:57;3.65;;;3.35;;
38717;SDS011;24468;52.128;9.278;2023-12-14T10:08:25;4.20;;;3.83;;
38717;SDS011;24468;52.128;9.278;2023-12-14T10:10:52;4.00;;;3.70;;
38717;SDS011;24468;52.128;9.278;2023-12-14T10:13:21;5.93;;;3.47;;
38717;SDS011;24468;52.128;9.278;2023-12-14T10:18:28;5.38;;;3.80;;
38717;SDS011;24468;52.128;9.278;2023-12-14T10:20:54;6.90;;;4.35;;
38717;SDS011;24468;52.128;9.278;2023-12-14T10:23:20;3.90;;;3.60;;
38717;SDS011;24468;52.128;9.278;2023-12-14T10:25:46;4.82;;;4.43;;
38717;SDS011;24468;52.128;9.278;2023-12-14T10:28:15;4.75;;;4.30;;
38717;SDS011;24468;52.128;9.278;2023-12-14T10:30:41;5.10;;;4.65;;
38717;SDS011;24468;52.128;9.278;2023-12-14T10:33:07;5.05;;;4.65;;
38717;SDS011;24468;52.128;9.278;2023-12-14T10:35:33;4.95;;;4.35;;
38717;SDS011;24468;52.128;9.278;2023-12-14T10:38:01;5.10;;;4.32;;
38717;SDS011;24468;52.128;9.278;2023-12-14T10:40:32;5.15;;;4.65;;
38717;SDS011;24468;52.128;9.278;2023-12-14T10:42:58;5.70;;;5.20;;
38717;SDS011;24468;52.128;9.278;2023-12-14T10:45:26;5.88;;;4.30;;
38717;SDS011;24468;52.128;9.278;2023-12-14T10:47:58;4.60;;;4.20;;
38717;SDS011;24468;52.128;9.278;2023-12-14T10:50:29;4.88;;;4.47;;
38717;SDS011;24468;52.128;9.278;2023-12-14T10:52:59;4.55;;;4.15;;
38717;SDS011;24468;52.128;9.278;2023-12-14T10:58:07;5.60;;;4.20;;
38717;SDS011;24468;52.128;9.278;2023-12-14T11:00:35;5.10;;;3.95;;
38717;SDS011;24468;52.128;9.278;2023-12-14T11:03:03;5.38;;;4.88;;
38717;SDS011;24468;52.128;9.278;2023-12-14T11:05:33;5.63;;;5.13;;
38717;SDS011;24468;52.128;9.278;2023-12-14T11:08:05;5.38;;;4.88;;
38717;SDS011;24468;52.128;9.278;2023-12-14T11:10:41;5.40;;;4.95;;
38717;SDS011;24468;52.128;9.278;2023-12-14T11:13:12;5.90;;;5.35;;
38717;SDS011;24468;52.128;9.278;2023-12-14T11:15:49;5.38;;;4.88;;
38717;SDS011;24468;52.128;9.278;2023-12-14T11:18:23;5.50;;;4.90;;
38717;SDS011;24468;52.128;9.278;2023-12-14T11:21:08;5.38;;;4.53;;
38717;SDS011;24468;52.128;9.278;2023-12-14T11:23:37;4.75;;;4.32;;
38717;SDS011;24468;52.128;9.278;2023-12-14T11:26:10;5.30;;;4.80;;
38717;SDS011;24468;52.128;9.278;2023-12-14T11:28:37;4.70;;;4.30;;
38717;SDS011;24468;52.128;9.278;2023-12-14T11:31:09;3.78;;;3.47;;
38717;SDS011;24468;52.128;9.278;2023-12-14T11:33:35;5.75;;;4.88;;
38717;SDS011;24468;52.128;9.278;2023-12-14T11:36:02;5.90;;;4.32;;
38717;SDS011;24468;52.128;9.278;2023-12-14T11:38:28;4.45;;;4.05;;
38717;SDS011;24468;52.128;9.278;2023-12-14T11:40:55;5.72;;;3.45;;
38717;SDS011;24468;52.128;9.278;2023-12-14T11:43:21;5.22;;;4.25;;
38717;SDS011;24468;52.128;9.278;2023-12-14T11:45:46;4.65;;;4.25;;
38717;SDS011;24468;52.128;9.278;2023-12-14T11:48:13;4.38;;;3.67;;
38717;SDS011;24468;52.128;9.278;2023-12-14T11:50:39;4.47;;;3.55;;
38717;SDS011;24468;52.128;9.278;2023-12-14T11:53:07;4.22;;;3.40;;
38717;SDS011;24468;52.128;9.278;2023-12-14T11:55:34;3.70;;;3.33;;
38717;SDS011;24468;52.128;9.278;2023-12-14T11:58:03;3.42;;;3.10;;
38717;SDS011;24468;52.128;9.278;2023-12-14T12:00:29;3.67;;;3.25;;
38717;SDS011;24468;52.128;9.278;2023-12-14T12:08:11;3.10;;;2.80;;
38717;SDS011;24468;52.128;9.278;2023-12-14T12:10:41;3.95;;;3.10;;
38717;SDS011;24468;52.128;9.278;2023-12-14T12:13:12;5.28;;;3.47;;
38717;SDS011;24468;52.128;9.278;2023-12-14T12:15:43;5.70;;;4.15;;
38717;SDS011;24468;52.128;9.278;2023-12-14T12:18:14;4.32;;;3.92;;
38717;SDS011;24468;52.128;9.278;2023-12-14T12:20:43;3.30;;;3.00;;
38717;SDS011;24468;52.128;9.278;2023-12-14T12:23:11;3.85;;;2.50;;
38717;SDS011;24468;52.128;9.278;2023-12-14T12:25:37;2.95;;;2.63;;
38717;SDS011;24468;52.128;9.278;2023-12-14T12:28:03;3.50;;;3.20;;
38717;SDS011;24468;52.128;9.278;2023-12-14T12:30:29;2.95;;;2.70;;
38717;SDS011;24468;52.128;9.278;2023-12-14T12:32:54;3.20;;;3.00;;
38717;SDS011;24468;52.128;9.278;2023-12-14T12:35:21;2.85;;;2.45;;
38717;SDS011;24468;52.128;9.278;2023-12-14T12:37:50;2.70;;;2.50;;
38717;SDS011;24468;52.128;9.278;2023-12-14T12:40:23;2.10;;;1.92;;
38717;SDS011;24468;52.128;9.278;2023-12-14T12:42:52;3.50;;;2.95;;
38717;SDS011;24468;52.128;9.278;2023-12-14T12:45:18;3.28;;;2.60;;
38717;SDS011;24468;52.128;9.278;2023-12-14T12:47:44;2.33;;;2.13;;
38717;SDS011;24468;52.128;9.278;2023-12-14T12:50:10;2.97;;;2.67;;
38717;SDS011;24468;52.128;9.278;2023-12-14T12:52:36;2.65;;;2.38;;
38717;SDS011;24468;52.128;9.278;2023-12-14T12:55:02;3.95;;;3.00;;
38717;SDS011;24468;52.128;9.278;2023-12-14T12:57:32;6.07;;;2.67;;
38717;SDS011;24468;52.128;9.278;2023-12-14T12:59:58;3.20;;;2.97;;
38717;SDS011;24468;52.128;9.278;2023-12-14T13:02:23;3.97;;;3.17;;
38717;SDS011;24468;52.128;9.278;2023-12-14T13:04:49;2.70;;;2.50;;
38717;SDS011;24468;52.128;9.278;2023-12-14T13:07:15;3.80;;;2.80;;
38717;SDS011;24468;52.128;9.278;2023-12-14T13:09:41;2.95;;;2.65;;
38717;SDS011;24468;52.128;9.278;2023-12-14T13:12:06;5.30;;;3.15;;
38717;SDS011;24468;52.128;9.278;2023-12-14T13:14:32;2.90;;;2.60;;
38717;SDS011;24468;52.128;9.278;2023-12-14T13:16:58;3.55;;;2.97;;
38717;SDS011;24468;52.128;9.278;2023-12-14T13:19:24;3.30;;;2.75;;
38717;SDS011;24468;52.128;9.278;2023-12-14T13:21:51;3.13;;;2.83;;
38717;SDS011;24468;52.128;9.278;2023-12-14T13:24:17;4.32;;;3.20;;
38717;SDS011;24468;52.128;9.278;2023-12-14T13:26:42;5.05;;;3.03;;
38717;SDS011;24468;52.128;9.278;2023-12-14T13:29:08;3.22;;;2.92;;
38717;SDS011;24468;52.128;9.278;2023-12-14T13:31:33;4.20;;;2.65;;
38717;SDS011;24468;52.128;9.278;2023-12-14T13:33:59;3.28;;;2.33;;
38717;SDS011;24468;52.128;9.278;2023-12-14T13:36:24;3.55;;;3.00;;
38717;SDS011;24468;52.128;9.278;2023-12-14T13:38:50;3.20;;;2.63;;
38717;SDS011;24468;52.128;9.278;2023-12-14T13:41:16;3.47;;;2.88;;
38717;SDS011;24468;52.128;9.278;2023-12-14T13:43:41;4.03;;;2.90;;
38717;SDS011;24468;52.128;9.278;2023-12-14T13:46:08;3.85;;;3.45;;
38717;SDS011;24468;52.128;9.278;2023-12-14T13:48:34;3.35;;;2.97;;
38717;SDS011;24468;52.128;9.278;2023-12-14T13:50:59;3.95;;;2.63;;
38717;SDS011;24468;52.128;9.278;2023-12-14T13:53:25;5.13;;;2.85;;
38717;SDS011;24468;52.128;9.278;2023-12-14T13:55:51;4.53;;;2.78;;
38717;SDS011;24468;52.128;9.278;2023-12-14T13:58:16;2.95;;;2.67;;
38717;SDS011;24468;52.128;9.278;2023-12-14T14:00:43;2.97;;;2.47;;
38717;SDS011;24468;52.128;9.278;2023-12-14T14:03:09;4.13;;;2.67;;
38717;SDS011;24468;52.128;9.278;2023-12-14T14:05:35;3.10;;;2.80;;
38717;SDS011;24468;52.128;9.278;2023-12-14T14:08:00;2.70;;;2.50;;
38717;SDS011;24468;52.128;9.278;2023-12-14T14:10:26;4.18;;;3.40;;
38717;SDS011;24468;52.128;9.278;2023-12-14T14:12:52;5.15;;;3.53;;
38717;SDS011;24468;52.128;9.278;2023-12-14T14:15:18;4.03;;;3.45;;
38717;SDS011;24468;52.128;9.278;2023-12-14T14:17:45;3.10;;;2.80;;
38717;SDS011;24468;52.128;9.278;2023-12-14T14:20:13;3.78;;;2.95;;
38717;SDS011;24468;52.128;9.278;2023-12-14T14:22:39;3.50;;;2.92;;
38717;SDS011;24468;52.128;9.278;2023-12-14T14:25:04;3.08;;;2.65;;
38717;SDS011;24468;52.128;9.278;2023-12-14T14:27:31;3.60;;;2.90;;
38717;SDS011;24468;52.128;9.278;2023-12-14T14:29:58;5.03;;;3.22;;
38717;SDS011;24468;52.128;9.278;2023-12-14T14:32:24;4.10;;;3.38;;
38717;SDS011;24468;52.128;9.278;2023-12-14T14:34:49;4.30;;;3.67;;
38717;SDS011;24468;52.128;9.278;2023-12-14T14:37:16;7.40;;;5.82;;
38717;SDS011;24468;52.128;9.278;2023-12-14T14:39:42;4.95;;;2.65;;
38717;SDS011;24468;52.128;9.278;2023-12-14T14:42:08;3.03;;;2.83;;
38717;SDS011;24468;52.128;9.278;2023-12-14T14:44:34;4.00;;;3.28;;
38717;SDS011;24468;52.128;9.278;2023-12-14T14:47:00;3.60;;;3.25;;
38717;SDS011;24468;52.128;9.278;2023-12-14T14:49:27;5.40;;;3.50;;
38717;SDS011;24468;52.128;9.278;2023-12-14T14:51:52;3.60;;;3.30;;
38717;SDS011;24468;52.128;9.278;2023-12-14T14:54:18;3.50;;;3.03;;
38717;SDS011;24468;52.128;9.278;2023-12-14T14:56:43;5.07;;;3.20;;